2H9 weather

Rolette Airport
Rolette, North Dakota, United States

Public forecast

Using degrees Fahrenheit for public forecast. Weather courtesy of forecast.io.

METAR (pilot weather report)

Closest report is Rolla Municipal Airport, 16.0 nm (29.7 km) NE. Retrieved 2019/07/17 23:35 UTC (24 minutes ago):

K06D 172335Z AUTO 26010KT 10SM CLR 25/17 A2971 RMK AO2

TAF (pilot weather forecast)

Closest forecast is Devils Lake Regional Airport, 50.1 nm (92.8 km) SE. Retrieved 2019/07/17 18:46 UTC (5 hours ago):

TAF KDVL 171743Z 1718/1818 19007KT P6SM SCT020 BKN070 TEMPO 1718/1720 BKN025 FM172100 22007KT P6SM SCT080 FM180000 26007KT P6SM SCT250 FM180800 22005KT P6SM BKN250